ePrivacy and GPDR Cookie Consent by Cookie Consent
EmailTwitter


Observations de surface / Québec / CYMX

Régions: Québec | Canada | États-Unis | Europe | France | UK | Ailleurs
Station
Affichage
Infos & localisation pour CYMX | Aide pour décoder les METARs

Observations prises le 2022-07-05 à 01H00 UTC à MONTREAL MIRABEL, QB (CYMX)

Etat du ciel: partiellement nuageux.

Température: 19.0 Celsius

Point de rosée: 12.0 Celsius

Humidité relative: 64%

Vents: Sud-ouest à 7 km/h ou 4 noeuds.

Pression au niveau moyen de la mer: 101.73 kilopascals.

Calage altimétrique: 101.69 kilopascals ou 30.03 pouces de mercure.

Visibilité horizontale: 25.00 milles terrestres ou 40.00 kilomètres.

Hauteur du plafond: 7620 mètres ( 25000 pieds ).

Observation METAR:

CYMX 050100Z 23004KT 25SM FEW100 BKN250 19/12 A3003 RMK AC1CI4 SLP173 DENSITY

ALT 800FT=